createdAt,value
2019-05-17T00:00:47.316Z,0
2019-05-17T00:01:46.846Z,0
2019-05-17T00:02:46.538Z,0
2019-05-17T00:03:43.695Z,0
2019-05-17T00:04:43.320Z,0
2019-05-17T00:05:46.563Z,0
2019-05-17T00:06:44.093Z,0
2019-05-17T00:07:44.049Z,0
2019-05-17T00:08:47.254Z,0
2019-05-17T00:09:44.540Z,0
2019-05-17T00:10:46.477Z,0
2019-05-17T00:11:43.910Z,0
2019-05-17T00:12:44.000Z,0
2019-05-17T00:13:46.569Z,0
2019-05-17T00:14:43.682Z,0
2019-05-17T00:15:43.832Z,0
2019-05-17T00:16:46.785Z,0
2019-05-17T00:17:46.838Z,0
2019-05-17T00:18:46.288Z,0
2019-05-17T00:19:46.358Z,0
2019-05-17T00:20:46.152Z,0
2019-05-17T00:21:44.117Z,0
2019-05-17T00:22:43.467Z,0
2019-05-17T00:23:46.768Z,0
2019-05-17T00:24:44.187Z,0
2019-05-17T00:25:44.039Z,0
2019-05-17T00:26:46.625Z,0
2019-05-17T00:27:43.884Z,0
2019-05-17T00:28:46.769Z,0
2019-05-17T00:29:46.390Z,0
2019-05-17T00:30:46.411Z,0
2019-05-17T00:31:45.869Z,0
2019-05-17T00:32:44.092Z,0
2019-05-17T00:33:43.787Z,0
2019-05-17T00:34:46.864Z,0
2019-05-17T00:35:46.727Z,0
2019-05-17T00:36:46.760Z,0
2019-05-17T00:37:46.473Z,0
2019-05-17T00:38:59.245Z,0
2019-05-17T00:39:43.832Z,0
2019-05-17T00:40:43.832Z,0
2019-05-17T00:41:46.789Z,0
2019-05-17T00:42:46.421Z,0
2019-05-17T00:43:46.131Z,0
2019-05-17T00:44:43.796Z,0
2019-05-17T00:45:46.793Z,0
2019-05-17T00:46:46.581Z,0
2019-05-17T00:47:46.705Z,0
2019-05-17T00:48:46.486Z,0
2019-05-17T00:49:46.440Z,0
2019-05-17T00:50:52.248Z,0
2019-05-17T00:51:43.802Z,0
2019-05-17T00:52:44.050Z,0
2019-05-17T00:53:43.134Z,0
2019-05-17T00:54:43.305Z,0
2019-05-17T00:55:43.533Z,0
2019-05-17T00:56:46.368Z,0
2019-05-17T00:57:44.109Z,0
2019-05-17T00:58:44.212Z,0
2019-05-17T00:59:44.052Z,0
2019-05-17T01:00:47.660Z,0
2019-05-17T01:01:43.614Z,0
2019-05-17T01:02:43.495Z,0
2019-05-17T01:03:43.437Z,0
2019-05-17T01:04:44.059Z,0
2019-05-17T01:05:44.191Z,0
2019-05-17T01:06:46.811Z,0
2019-05-17T01:07:46.940Z,0
2019-05-17T01:08:46.365Z,0
2019-05-17T01:09:43.817Z,0
2019-05-17T01:10:44.039Z,0
2019-05-17T01:11:43.753Z,0
2019-05-17T01:12:43.768Z,0
2019-05-17T01:13:46.334Z,0
2019-05-17T01:14:46.267Z,0
2019-05-17T01:15:44.023Z,0
2019-05-17T01:16:43.957Z,0
2019-05-17T01:17:43.682Z,0
2019-05-17T01:18:43.331Z,0
2019-05-17T01:19:43.703Z,0
2019-05-17T01:20:44.134Z,0
2019-05-17T01:21:43.905Z,0
2019-05-17T01:22:43.621Z,0
2019-05-17T01:23:43.394Z,0
2019-05-17T01:24:46.164Z,0
2019-05-17T01:25:43.886Z,0
2019-05-17T01:26:46.706Z,0
2019-05-17T01:27:42.988Z,0
2019-05-17T01:28:43.518Z,0
2019-05-17T01:29:43.468Z,0
2019-05-17T01:30:46.341Z,0
2019-05-17T01:31:46.332Z,0
2019-05-17T01:32:46.394Z,0
2019-05-17T01:33:43.913Z,0
2019-05-17T01:34:46.787Z,0
2019-05-17T01:35:46.542Z,0
2019-05-17T01:36:46.291Z,0
2019-05-17T01:37:44.069Z,0
2019-05-17T01:38:46.749Z,0
2019-05-17T01:39:46.679Z,0
2019-05-17T01:40:46.333Z,0
2019-05-17T01:41:46.662Z,0
2019-05-17T01:42:46.446Z,0
2019-05-17T01:43:43.934Z,0
2019-05-17T01:44:43.882Z,0
2019-05-17T01:45:43.648Z,0
2019-05-17T01:46:43.874Z,0
2019-05-17T01:47:44.003Z,0
2019-05-17T01:48:43.738Z,0
2019-05-17T01:49:43.480Z,0
2019-05-17T01:50:46.358Z,0
2019-05-17T01:51:46.323Z,0
2019-05-17T01:52:45.853Z,0
2019-05-17T01:53:43.629Z,0
2019-05-17T01:54:43.411Z,0
2019-05-17T01:55:46.467Z,0
2019-05-17T01:56:45.886Z,0
2019-05-17T01:57:44.222Z,0
2019-05-17T01:58:43.664Z,0
2019-05-17T01:59:46.532Z,0
2019-05-17T02:00:46.496Z,0
2019-05-17T02:01:44.112Z,0
2019-05-17T02:02:43.700Z,0
2019-05-17T02:03:42.363Z,0
2019-05-17T02:04:46.635Z,0
2019-05-17T02:05:44.303Z,0
2019-05-17T02:06:43.809Z,0
2019-05-17T02:07:46.367Z,0
2019-05-17T02:08:44.237Z,0
2019-05-17T02:09:50.135Z,0
2019-05-17T02:10:46.511Z,0
2019-05-17T02:11:46.537Z,0
2019-05-17T02:12:48.646Z,0
2019-05-17T02:13:42.431Z,0
2019-05-17T02:14:42.273Z,0
2019-05-17T02:15:42.649Z,0
2019-05-17T02:16:42.510Z,0
2019-05-17T02:17:46.610Z,0
2019-05-17T02:18:46.464Z,0
2019-05-17T02:19:43.939Z,0
2019-05-17T02:20:46.313Z,0
2019-05-17T02:21:47.842Z,0
2019-05-17T02:22:43.645Z,0
2019-05-17T02:23:46.752Z,0
2019-05-17T02:24:46.292Z,0
2019-05-17T02:25:43.926Z,0
2019-05-17T02:26:42.222Z,0
2019-05-17T02:27:52.337Z,0
2019-05-17T02:28:43.808Z,0
2019-05-17T02:29:42.408Z,0
2019-05-17T02:30:46.587Z,0
2019-05-17T02:31:45.775Z,0
2019-05-17T02:32:45.642Z,0
2019-05-17T02:33:45.564Z,0
2019-05-17T02:34:45.520Z,0
2019-05-17T02:35:45.414Z,0
2019-05-17T02:36:45.557Z,0
2019-05-17T02:37:45.885Z,0
2019-05-17T02:38:45.920Z,0
2019-05-17T02:40:13.870Z,0
2019-05-17T02:40:45.558Z,0
2019-05-17T02:41:45.611Z,0
2019-05-17T02:42:45.553Z,0
2019-05-17T02:43:45.857Z,0
2019-05-17T02:44:45.908Z,0
2019-05-17T02:45:45.847Z,0
2019-05-17T02:46:45.842Z,0
2019-05-17T02:47:46.262Z,0
2019-05-17T02:48:45.246Z,0
2019-05-17T02:49:44.881Z,0
2019-05-17T02:50:48.212Z,0
2019-05-17T02:51:45.246Z,0
2019-05-17T02:52:45.900Z,0
2019-05-17T02:53:45.400Z,0
2019-05-17T02:54:46.017Z,0
2019-05-17T02:55:45.788Z,0
2019-05-17T02:56:45.845Z,0
2019-05-17T02:57:47.927Z,0
2019-05-17T02:58:46.164Z,0
2019-05-17T02:59:45.676Z,0
2019-05-17T03:00:46.773Z,5
2019-05-17T03:01:46.496Z,5
2019-05-17T03:02:46.039Z,5
2019-05-17T03:03:43.616Z,5
2019-05-17T03:04:45.570Z,5
2019-05-17T03:05:45.570Z,5
2019-05-17T03:06:46.132Z,5
2019-05-17T03:07:46.033Z,5
2019-05-17T03:08:45.375Z,5
2019-05-17T03:09:45.615Z,10
2019-05-17T03:10:45.725Z,10
2019-05-17T03:11:45.399Z,10
2019-05-17T03:12:44.287Z,10
2019-05-17T03:13:45.714Z,10
2019-05-17T03:14:45.600Z,10
2019-05-17T03:15:45.578Z,10
2019-05-17T03:16:45.563Z,15
2019-05-17T03:17:46.047Z,15
2019-05-17T03:18:46.235Z,15
2019-05-17T03:19:46.016Z,15
2019-05-17T03:20:45.534Z,15
2019-05-17T03:21:45.341Z,20
2019-05-17T03:22:46.228Z,20
2019-05-17T03:23:45.770Z,20
2019-05-17T03:24:46.221Z,20
2019-05-17T03:25:46.287Z,20
2019-05-17T03:26:45.335Z,25
2019-05-17T03:27:45.380Z,25
2019-05-17T03:28:45.159Z,25
2019-05-17T03:29:44.979Z,25
2019-05-17T03:30:58.309Z,25
2019-05-17T03:32:18.664Z,30
2019-05-17T03:32:58.371Z,30
2019-05-17T03:33:55.581Z,30
2019-05-17T03:34:55.214Z,30
2019-05-17T03:35:58.730Z,35
2019-05-17T03:36:56.250Z,35
2019-05-17T03:37:53.132Z,35
2019-05-17T03:38:43.111Z,35
2019-05-17T03:39:45.169Z,40
2019-05-17T03:41:36.287Z,40
2019-05-17T03:41:47.699Z,40
2019-05-17T03:42:47.731Z,40
2019-05-17T03:43:53.235Z,40
2019-05-17T03:44:48.591Z,45
2019-05-17T03:45:53.107Z,45
2019-05-17T03:46:49.369Z,50
2019-05-17T03:47:48.978Z,50
2019-05-17T03:48:48.380Z,55
2019-05-17T03:49:53.075Z,55
2019-05-17T03:50:48.380Z,60
2019-05-17T03:51:52.924Z,60
2019-05-17T03:52:49.155Z,60
2019-05-17T03:53:49.047Z,60
2019-05-17T03:54:47.835Z,60
2019-05-17T03:55:47.813Z,60
2019-05-17T03:56:47.580Z,65
2019-05-17T03:57:48.742Z,75
2019-05-17T03:58:48.224Z,75
2019-05-17T03:59:47.640Z,80
2019-05-17T04:00:47.671Z,80
2019-05-17T04:01:48.456Z,95
2019-05-17T04:02:49.534Z,100
2019-05-17T04:03:48.276Z,100
2019-05-17T04:04:47.793Z,105
2019-05-17T04:05:47.796Z,110
2019-05-17T04:06:48.551Z,110
2019-05-17T04:07:48.460Z,105
2019-05-17T04:08:47.247Z,100
2019-05-17T04:09:53.157Z,95
2019-05-17T04:10:47.389Z,95
2019-05-17T04:11:47.742Z,100
2019-05-17T04:12:48.956Z,95
2019-05-17T04:13:47.817Z,100
2019-05-17T04:14:47.714Z,105
2019-05-17T04:15:48.139Z,105
2019-05-17T04:16:47.704Z,105
2019-05-17T04:17:48.901Z,105
2019-05-17T04:18:48.277Z,110
2019-05-17T04:19:47.343Z,110
2019-05-17T04:20:48.213Z,115
2019-05-17T04:21:47.485Z,120
2019-05-17T04:22:49.015Z,135
2019-05-17T04:23:47.754Z,150
2019-05-17T04:24:48.650Z,180
2019-05-17T04:25:52.999Z,180
2019-05-17T04:26:48.801Z,170
2019-05-17T04:27:48.694Z,160
2019-05-17T04:28:48.927Z,165
2019-05-17T04:29:47.342Z,180
2019-05-17T04:30:48.162Z,210
2019-05-17T04:31:48.351Z,220
2019-05-17T04:32:52.401Z,240
2019-05-17T04:33:47.679Z,245
2019-05-17T04:34:48.276Z,225
2019-05-17T04:35:47.994Z,210
2019-05-17T04:36:47.986Z,220
2019-05-17T04:37:53.030Z,275
2019-05-17T04:38:48.190Z,290
2019-05-17T04:39:48.118Z,295
2019-05-17T04:40:48.067Z,305
2019-05-17T04:42:05.910Z,310
2019-05-17T04:42:48.906Z,320
2019-05-17T04:43:47.311Z,330
2019-05-17T04:44:48.018Z,360
2019-05-17T04:45:47.433Z,350
2019-05-17T04:46:48.003Z,350
2019-05-17T04:47:48.906Z,340
2019-05-17T04:48:48.496Z,360
2019-05-17T04:49:48.726Z,380
2019-05-17T04:50:47.738Z,395
2019-05-17T04:51:48.755Z,380
2019-05-17T04:52:47.779Z,370
2019-05-17T04:53:47.849Z,395
2019-05-17T04:54:47.199Z,395
2019-05-17T04:55:47.925Z,420
2019-05-17T04:56:47.459Z,400
2019-05-17T04:57:48.741Z,350
2019-05-17T04:58:50.188Z,355
2019-05-17T04:59:47.929Z,380
2019-05-17T05:00:47.897Z,445
2019-05-17T05:01:48.395Z,540
2019-05-17T05:02:48.337Z,585
2019-05-17T05:03:47.567Z,510
2019-05-17T05:04:53.301Z,545
2019-05-17T05:05:47.631Z,565
2019-05-17T05:06:48.420Z,595
2019-05-17T05:07:48.092Z,540
2019-05-17T05:08:47.291Z,570
2019-05-17T05:09:47.831Z,620
2019-05-17T05:10:53.145Z,580
2019-05-17T05:12:12.413Z,590
2019-05-17T05:12:48.535Z,560
2019-05-17T05:13:47.416Z,545
2019-05-17T05:14:47.830Z,525
2019-05-17T05:15:48.428Z,475
2019-05-17T05:16:47.211Z,450
2019-05-17T05:17:47.510Z,435
2019-05-17T05:18:46.888Z,420
2019-05-17T05:19:47.066Z,400
2019-05-17T05:20:48.128Z,415
2019-05-17T05:21:47.424Z,455
2019-05-17T05:22:47.677Z,510
2019-05-17T05:23:47.229Z,495
2019-05-17T05:24:47.112Z,470
2019-05-17T05:25:47.669Z,485
2019-05-17T05:26:47.246Z,525
2019-05-17T05:27:47.612Z,515
2019-05-17T05:28:49.512Z,500
2019-05-17T05:29:46.417Z,500
2019-05-17T05:30:47.091Z,490
2019-05-17T05:31:47.426Z,475
2019-05-17T05:32:47.542Z,455
2019-05-17T05:33:46.726Z,450
2019-05-17T05:34:48.902Z,470
2019-05-17T05:35:47.358Z,510
2019-05-17T05:36:46.655Z,625
2019-05-17T05:37:47.290Z,605
2019-05-17T05:38:47.013Z,615
2019-05-17T05:39:46.230Z,620
2019-05-17T05:40:46.159Z,630
2019-05-17T05:41:47.351Z,705
2019-05-17T05:42:47.394Z,780
2019-05-17T05:43:46.732Z,815
2019-05-17T05:44:46.351Z,920
2019-05-17T05:45:46.552Z,840
2019-05-17T05:46:46.983Z,830
2019-05-17T05:47:46.348Z,935
2019-05-17T05:48:46.410Z,975
2019-05-17T05:49:47.302Z,1030
2019-05-17T05:50:47.744Z,815
2019-05-17T05:51:47.269Z,775
2019-05-17T05:52:47.157Z,870
2019-05-17T05:53:46.731Z,955
2019-05-17T05:54:46.048Z,1050
2019-05-17T05:55:47.778Z,1050
2019-05-17T05:56:47.022Z,1035
2019-05-17T05:57:46.897Z,790
2019-05-17T05:58:47.550Z,775
2019-05-17T05:59:47.417Z,830
2019-05-17T06:00:47.648Z,730
2019-05-17T06:01:46.854Z,875
2019-05-17T06:02:46.702Z,905
2019-05-17T06:03:46.159Z,1115
2019-05-17T06:04:47.188Z,1195
2019-05-17T06:05:47.166Z,1200
2019-05-17T06:06:46.429Z,1205
2019-05-17T06:07:46.507Z,1215
2019-05-17T06:08:46.269Z,1225
2019-05-17T06:09:47.169Z,1210
2019-05-17T06:10:47.833Z,995
2019-05-17T06:11:46.461Z,1095
2019-05-17T06:12:47.903Z,1120
2019-05-17T06:13:46.692Z,1245
2019-05-17T06:14:46.458Z,1275
2019-05-17T06:15:47.579Z,1300
2019-05-17T06:16:51.980Z,1320
2019-05-17T06:17:47.709Z,1330
2019-05-17T06:18:47.281Z,1345
2019-05-17T06:19:46.940Z,1345
2019-05-17T06:20:46.429Z,1355
2019-05-17T06:21:47.366Z,1355
2019-05-17T06:22:47.595Z,1355
2019-05-17T06:23:47.220Z,1370
2019-05-17T06:24:47.300Z,1360
2019-05-17T06:25:48.185Z,1385
2019-05-17T06:26:46.910Z,1395
2019-05-17T06:27:46.288Z,1380
2019-05-17T06:28:47.310Z,1410
2019-05-17T06:29:46.319Z,1275
2019-05-17T06:30:47.779Z,1445
2019-05-17T06:31:48.150Z,1455
2019-05-17T06:32:48.201Z,1450
2019-05-17T06:33:46.971Z,1335
2019-05-17T06:34:47.055Z,1440
2019-05-17T06:35:47.220Z,1485
2019-05-17T06:36:47.135Z,1525
2019-05-17T06:37:47.214Z,1515
2019-05-17T06:38:46.807Z,1535
2019-05-17T06:39:46.756Z,1535
2019-05-17T06:40:46.889Z,1575
2019-05-17T06:41:46.745Z,1600
2019-05-17T06:42:54.947Z,1600
2019-05-17T06:43:48.810Z,1590
2019-05-17T06:44:46.567Z,1605
2019-05-17T06:45:46.794Z,1595
2019-05-17T06:46:46.670Z,1615
2019-05-17T06:47:47.481Z,1650
2019-05-17T06:48:47.210Z,1630
2019-05-17T06:49:47.211Z,1660
2019-05-17T06:50:51.799Z,1675
2019-05-17T06:51:47.465Z,1615
2019-05-17T06:52:48.090Z,1675
2019-05-17T06:53:46.068Z,1735
2019-05-17T06:54:46.527Z,1670
2019-05-17T06:55:47.384Z,1400
2019-05-17T06:56:46.611Z,1410
2019-05-17T06:57:48.120Z,1735
2019-05-17T06:58:45.541Z,1525
2019-05-17T06:59:45.559Z,1570
2019-05-17T07:00:49.633Z,1830
2019-05-17T07:01:50.259Z,1830
2019-05-17T07:02:49.655Z,1830
2019-05-17T07:03:49.407Z,1855
2019-05-17T07:04:46.671Z,1870
2019-05-17T07:05:47.538Z,1880
2019-05-17T07:06:49.505Z,1885
2019-05-17T07:07:49.711Z,1620
2019-05-17T07:08:49.435Z,1480
2019-05-17T07:09:49.531Z,1400
2019-05-17T07:10:46.951Z,1225
2019-05-17T07:11:46.959Z,1430
2019-05-17T07:13:06.150Z,1145
2019-05-17T07:13:46.664Z,1330
2019-05-17T07:14:47.257Z,1450
2019-05-17T07:15:59.663Z,1395
2019-05-17T07:16:46.828Z,1305
2019-05-17T07:17:47.172Z,1445
2019-05-17T07:18:49.263Z,1325
2019-05-17T07:19:47.239Z,1720
2019-05-17T07:20:46.733Z,1960
2019-05-17T07:21:49.406Z,2040
2019-05-17T07:22:50.513Z,1955
2019-05-17T07:23:46.828Z,1965
2019-05-17T07:24:46.843Z,1955
2019-05-17T07:25:46.900Z,1930
2019-05-17T07:26:46.533Z,1940
2019-05-17T07:27:55.099Z,1980
2019-05-17T07:28:49.676Z,2015
2019-05-17T07:29:49.600Z,2025
2019-05-17T07:30:47.236Z,2050
2019-05-17T07:31:49.658Z,2005
2019-05-17T07:32:49.753Z,1885
2019-05-17T07:33:46.776Z,1765
2019-05-17T07:34:47.311Z,1700
2019-05-17T07:35:46.902Z,1715
2019-05-17T07:36:46.665Z,1740
2019-05-17T07:37:46.880Z,1755
2019-05-17T07:38:46.751Z,1775
2019-05-17T07:40:07.234Z,1805
2019-05-17T07:40:47.038Z,1820
2019-05-17T07:41:49.306Z,1850
2019-05-17T07:42:46.926Z,1880
2019-05-17T07:43:49.425Z,1935
2019-05-17T07:44:49.645Z,1980
2019-05-17T07:45:49.555Z,2005
2019-05-17T07:46:51.679Z,2050
2019-05-17T07:47:49.425Z,2115
2019-05-17T07:48:49.597Z,2140
2019-05-17T07:49:49.428Z,2150
2019-05-17T07:50:46.851Z,2120
2019-05-17T07:51:46.505Z,1965
2019-05-17T07:52:46.951Z,2135
2019-05-17T07:53:49.295Z,1215
2019-05-17T07:54:47.077Z,2220
2019-05-17T07:55:47.050Z,2640
2019-05-17T07:56:47.346Z,2790
2019-05-17T07:57:49.549Z,2900
2019-05-17T07:58:49.449Z,2905
2019-05-17T07:59:46.911Z,2820
2019-05-17T08:00:51.073Z,2895
2019-05-17T08:01:50.282Z,2910
2019-05-17T08:02:47.412Z,2895
2019-05-17T08:03:49.942Z,2895
2019-05-17T08:04:49.920Z,2840
2019-05-17T08:05:47.554Z,2800
2019-05-17T08:06:47.527Z,2825
2019-05-17T08:07:49.845Z,2835
2019-05-17T08:08:50.088Z,2785
2019-05-17T08:09:47.562Z,2750
2019-05-17T08:10:50.724Z,2705
2019-05-17T08:11:46.758Z,2405
2019-05-17T08:12:49.761Z,990
2019-05-17T08:13:46.986Z,1515
2019-05-17T08:14:47.159Z,1845
2019-05-17T08:15:46.982Z,1865
2019-05-17T08:16:50.151Z,1885
2019-05-17T08:17:50.168Z,1890
2019-05-17T08:18:49.529Z,1905
2019-05-17T08:19:49.634Z,1915
2019-05-17T08:20:47.331Z,1915
2019-05-17T08:21:50.179Z,1900
2019-05-17T08:22:50.179Z,1890
2019-05-17T08:23:47.201Z,1890
2019-05-17T08:24:49.217Z,1860
2019-05-17T08:26:05.309Z,1840
2019-05-17T08:26:47.527Z,1850
2019-05-17T08:27:50.163Z,1805
2019-05-17T08:28:49.755Z,1840
2019-05-17T08:29:49.728Z,1825
2019-05-17T08:31:49.593Z,1890
2019-05-17T08:32:50.433Z,1865
2019-05-17T08:33:49.723Z,1915
2019-05-17T08:34:49.417Z,1930
2019-05-17T08:35:49.314Z,1975
2019-05-17T08:36:49.734Z,1985
2019-05-17T08:37:52.240Z,1925
2019-05-17T08:38:50.113Z,1995
2019-05-17T08:39:50.490Z,2020
2019-05-17T08:40:50.898Z,2000
2019-05-17T08:41:49.680Z,1960
2019-05-17T08:42:49.850Z,1945
2019-05-17T08:44:00.649Z,1285
2019-05-17T08:44:49.768Z,625
2019-05-17T08:45:50.034Z,365
2019-05-17T08:46:50.078Z,365
2019-05-17T08:48:49.371Z,350
2019-05-17T08:49:49.659Z,345
2019-05-17T08:50:51.780Z,350
2019-05-17T08:51:49.992Z,345
2019-05-17T08:52:49.455Z,345
2019-05-17T08:53:51.614Z,345
2019-05-17T08:54:54.264Z,340
2019-05-17T08:55:50.037Z,340
2019-05-17T08:56:50.366Z,330
2019-05-17T08:57:52.374Z,330
2019-05-17T08:58:49.680Z,335
2019-05-17T08:59:49.723Z,335
2019-05-17T09:00:50.457Z,335
2019-05-17T09:01:52.871Z,345
2019-05-17T09:02:49.961Z,360
2019-05-17T09:03:50.434Z,370
2019-05-17T09:04:49.683Z,370
2019-05-17T09:05:52.475Z,360
2019-05-17T09:06:50.432Z,340
2019-05-17T09:07:51.652Z,335
2019-05-17T09:08:49.797Z,340
2019-05-17T09:09:50.087Z,350
2019-05-17T09:10:50.346Z,360
2019-05-17T09:11:50.099Z,375
2019-05-17T09:12:50.216Z,375
2019-05-17T09:14:04.639Z,390
2019-05-17T09:14:49.460Z,395
2019-05-17T09:15:51.730Z,415
2019-05-17T09:16:50.421Z,450
2019-05-17T09:17:49.810Z,485
2019-05-17T09:18:50.165Z,485
2019-05-17T09:19:50.654Z,500
2019-05-17T09:20:49.463Z,485
2019-05-17T09:21:50.286Z,455
2019-05-17T09:22:51.017Z,450
2019-05-17T09:23:50.342Z,460
2019-05-17T09:24:49.930Z,460
2019-05-17T09:25:50.048Z,475
2019-05-17T09:26:51.609Z,490
2019-05-17T09:27:50.078Z,530
2019-05-17T09:28:49.906Z,545
2019-05-17T09:29:49.543Z,570
2019-05-17T09:30:50.686Z,590
2019-05-17T09:31:47.599Z,595
2019-05-17T09:32:47.632Z,595
2019-05-17T09:33:49.675Z,590
2019-05-17T09:34:49.639Z,560
2019-05-17T09:35:49.934Z,505
2019-05-17T09:36:49.668Z,480
2019-05-17T09:37:49.835Z,500
2019-05-17T09:38:49.427Z,525
2019-05-17T09:39:49.132Z,525
2019-05-17T09:40:50.427Z,515
2019-05-17T09:41:50.255Z,495
2019-05-17T09:42:49.879Z,460
2019-05-17T09:43:49.532Z,410
2019-05-17T09:44:49.556Z,385
2019-05-17T09:45:50.637Z,380
2019-05-17T09:46:50.345Z,400
2019-05-17T09:47:50.502Z,425
2019-05-17T09:48:52.958Z,420
2019-05-17T09:49:50.115Z,425
2019-05-17T09:50:50.386Z,410
2019-05-17T09:51:49.638Z,405
2019-05-17T09:52:49.391Z,405
2019-05-17T09:53:51.821Z,415
2019-05-17T09:54:55.255Z,430
2019-05-17T09:55:49.751Z,435
2019-05-17T09:56:49.696Z,450
2019-05-17T09:57:49.621Z,465
2019-05-17T09:58:49.501Z,485
2019-05-17T09:59:49.572Z,500
2019-05-17T10:00:46.812Z,510
2019-05-17T10:01:49.462Z,510
2019-05-17T10:02:50.723Z,505
2019-05-17T10:03:50.521Z,505
2019-05-17T10:04:50.208Z,525
2019-05-17T10:05:51.985Z,545
2019-05-17T10:06:51.291Z,535
2019-05-17T10:07:50.615Z,510
2019-05-17T10:08:49.458Z,515
2019-05-17T10:09:50.135Z,525
2019-05-17T10:11:00.784Z,515
2019-05-17T10:11:51.644Z,485
2019-05-17T10:12:49.519Z,455
2019-05-17T10:13:46.791Z,440
2019-05-17T10:14:46.794Z,435
2019-05-17T10:15:49.991Z,435
2019-05-17T10:16:46.806Z,425
2019-05-17T10:17:46.808Z,425
2019-05-17T10:18:47.284Z,415
2019-05-17T10:19:49.512Z,420
2019-05-17T10:20:50.596Z,435
2019-05-17T10:21:49.311Z,440
2019-05-17T10:22:50.343Z,445
2019-05-17T10:23:49.667Z,455
2019-05-17T10:24:51.039Z,475
2019-05-17T10:25:49.336Z,470
2019-05-17T10:26:46.798Z,465
2019-05-17T10:27:49.658Z,465
2019-05-17T10:28:51.523Z,475
2019-05-17T10:29:50.074Z,520
2019-05-17T10:30:52.156Z,580
2019-05-17T10:31:50.404Z,625
2019-05-17T10:32:52.802Z,600
2019-05-17T10:33:49.352Z,595
2019-05-17T10:34:49.405Z,595
2019-05-17T10:35:49.640Z,590
2019-05-17T10:36:47.326Z,615
2019-05-17T10:37:52.874Z,590
2019-05-17T10:38:50.159Z,535
2019-05-17T10:39:52.694Z,510
2019-05-17T10:40:50.016Z,470
2019-05-17T10:41:49.921Z,465
2019-05-17T10:42:49.971Z,455
2019-05-17T10:43:50.047Z,480
2019-05-17T10:45:02.326Z,515
2019-05-17T10:45:49.416Z,540
2019-05-17T10:46:47.832Z,560
2019-05-17T10:47:50.237Z,560
2019-05-17T10:48:50.009Z,535
2019-05-17T10:49:49.499Z,520
2019-05-17T10:50:49.627Z,500
2019-05-17T10:51:49.369Z,480
2019-05-17T10:52:48.206Z,450
2019-05-17T10:53:47.427Z,450
2019-05-17T10:54:47.427Z,445
2019-05-17T10:55:49.760Z,430
2019-05-17T10:56:46.782Z,420
2019-05-17T10:57:46.811Z,430
2019-05-17T10:58:51.654Z,455
2019-05-17T10:59:46.778Z,465
2019-05-17T11:00:50.080Z,455
2019-05-17T11:01:46.780Z,475
2019-05-17T11:02:46.808Z,520
2019-05-17T11:03:50.226Z,560
2019-05-17T11:04:50.518Z,590
2019-05-17T11:05:50.203Z,615
2019-05-17T11:06:50.046Z,635
2019-05-17T11:07:46.793Z,665
2019-05-17T11:08:46.794Z,670
2019-05-17T11:09:50.777Z,695
2019-05-17T11:10:50.077Z,715
2019-05-17T11:11:46.791Z,745
2019-05-17T11:12:46.789Z,770
2019-05-17T11:13:46.848Z,775
2019-05-17T11:15:17.265Z,770
2019-05-17T11:15:46.785Z,760
2019-05-17T11:16:46.811Z,700
2019-05-17T11:17:46.816Z,680
2019-05-17T11:18:46.794Z,635
2019-05-17T11:19:46.825Z,600
2019-05-17T11:20:46.596Z,575
2019-05-17T11:21:46.821Z,545
2019-05-17T11:22:46.855Z,515
2019-05-17T11:23:46.800Z,490
2019-05-17T11:24:46.803Z,470
2019-05-17T11:25:52.551Z,450
2019-05-17T11:26:46.803Z,435
2019-05-17T11:27:46.809Z,430
2019-05-17T11:28:46.803Z,440
2019-05-17T11:29:46.818Z,455
2019-05-17T11:30:46.816Z,480
2019-05-17T11:31:46.814Z,505
2019-05-17T11:32:46.625Z,545
2019-05-17T11:33:46.579Z,575
2019-05-17T11:34:46.860Z,600
2019-05-17T11:35:46.821Z,635
2019-05-17T11:36:46.861Z,660
2019-05-17T11:37:46.902Z,665
2019-05-17T11:38:46.847Z,655
2019-05-17T11:39:46.829Z,640
2019-05-17T11:40:49.685Z,630
2019-05-17T11:41:46.840Z,635
2019-05-17T11:42:46.948Z,610
2019-05-17T11:43:46.909Z,600
2019-05-17T11:44:46.853Z,585
2019-05-17T11:45:46.852Z,580
2019-05-17T11:46:46.848Z,580
2019-05-17T11:47:46.848Z,585
2019-05-17T11:48:46.923Z,580
2019-05-17T11:49:46.852Z,585
2019-05-17T11:50:46.862Z,605
2019-05-17T11:51:46.871Z,625
2019-05-17T11:52:46.859Z,640
2019-05-17T11:53:46.919Z,665
2019-05-17T11:54:46.869Z,655
2019-05-17T11:55:46.630Z,645
2019-05-17T11:56:46.872Z,655
2019-05-17T11:57:46.887Z,655
2019-05-17T11:58:46.626Z,675
2019-05-17T11:59:46.880Z,690
2019-05-17T12:00:46.889Z,690
2019-05-17T12:01:46.674Z,685
2019-05-17T12:02:46.883Z,680
2019-05-17T12:03:46.881Z,660
2019-05-17T12:04:46.888Z,655
2019-05-17T12:05:46.886Z,645
2019-05-17T12:06:46.907Z,620
2019-05-17T12:07:46.905Z,590
2019-05-17T12:08:46.897Z,565
2019-05-17T12:09:47.204Z,530
2019-05-17T12:10:47.424Z,520
2019-05-17T12:11:46.911Z,530
2019-05-17T12:12:46.941Z,535
2019-05-17T12:13:50.592Z,535
2019-05-17T12:14:46.909Z,540
2019-05-17T12:15:54.471Z,565
2019-05-17T12:16:46.910Z,590
2019-05-17T12:17:46.922Z,635
2019-05-17T12:18:46.916Z,670
2019-05-17T12:19:46.928Z,690
2019-05-17T12:20:46.954Z,710
2019-05-17T12:21:46.931Z,695
2019-05-17T12:22:46.936Z,650
2019-05-17T12:23:46.957Z,615
2019-05-17T12:24:46.693Z,585
2019-05-17T12:25:46.942Z,540
2019-05-17T12:26:49.897Z,520
2019-05-17T12:27:46.966Z,505
2019-05-17T12:28:46.939Z,480
2019-05-17T12:29:47.002Z,475
2019-05-17T12:30:46.724Z,480
2019-05-17T12:31:46.951Z,475
2019-05-17T12:32:46.958Z,465
2019-05-17T12:33:46.952Z,455
2019-05-17T12:34:46.955Z,445
2019-05-17T12:35:46.969Z,445
2019-05-17T12:36:46.977Z,440
2019-05-17T12:37:49.600Z,450
2019-05-17T12:38:46.975Z,465
2019-05-17T12:39:46.964Z,485
2019-05-17T12:40:46.967Z,500
2019-05-17T12:41:46.935Z,540
2019-05-17T12:42:46.985Z,555
2019-05-17T12:43:46.972Z,580
2019-05-17T12:44:46.989Z,605
2019-05-17T12:46:02.013Z,615
2019-05-17T12:46:46.976Z,615
2019-05-17T12:47:46.983Z,610
2019-05-17T12:48:46.737Z,600
2019-05-17T12:49:46.997Z,595
2019-05-17T12:50:46.984Z,585
2019-05-17T12:51:46.977Z,570
2019-05-17T12:52:46.995Z,560
2019-05-17T12:53:47.004Z,555
2019-05-17T12:54:46.980Z,565
2019-05-17T12:55:46.996Z,565
2019-05-17T12:56:46.993Z,575
2019-05-17T12:57:47.017Z,580
2019-05-17T12:58:46.990Z,600
2019-05-17T12:59:46.977Z,610
2019-05-17T13:00:46.985Z,625
2019-05-17T13:01:46.995Z,635
2019-05-17T13:02:46.993Z,640
2019-05-17T13:03:46.990Z,645
2019-05-17T13:04:47.020Z,660
2019-05-17T13:05:46.991Z,680
2019-05-17T13:06:47.014Z,690
2019-05-17T13:07:49.999Z,675
2019-05-17T13:08:46.753Z,665
2019-05-17T13:09:46.997Z,650
2019-05-17T13:10:47.003Z,635
2019-05-17T13:11:47.010Z,615
2019-05-17T13:12:47.016Z,610
2019-05-17T13:13:46.756Z,605
2019-05-17T13:14:46.991Z,600
2019-05-17T13:15:46.998Z,595
2019-05-17T13:16:46.999Z,595
2019-05-17T13:17:47.032Z,595
2019-05-17T13:18:47.026Z,605
2019-05-17T13:19:46.997Z,610
2019-05-17T13:20:46.766Z,610
2019-05-17T13:21:47.020Z,590
2019-05-17T13:22:47.060Z,570
2019-05-17T13:23:47.005Z,560
2019-05-17T13:24:47.024Z,560
2019-05-17T13:25:47.012Z,575
2019-05-17T13:26:47.024Z,585
2019-05-17T13:27:48.830Z,605
2019-05-17T13:28:47.012Z,620
2019-05-17T13:29:47.016Z,620
2019-05-17T13:30:47.034Z,625
2019-05-17T13:31:47.022Z,625
2019-05-17T13:32:46.781Z,615
2019-05-17T13:33:46.787Z,605
2019-05-17T13:34:47.045Z,605
2019-05-17T13:35:47.039Z,600
2019-05-17T13:36:47.019Z,600
2019-05-17T13:37:47.043Z,605
2019-05-17T13:38:47.034Z,605
2019-05-17T13:39:47.022Z,600
2019-05-17T13:40:49.545Z,605
2019-05-17T13:41:47.014Z,600
2019-05-17T13:42:47.034Z,600
2019-05-17T13:43:47.139Z,600
2019-05-17T13:44:47.020Z,595
2019-05-17T13:45:50.618Z,590
2019-05-17T13:46:47.022Z,590
2019-05-17T13:47:47.065Z,590
2019-05-17T13:48:47.028Z,590
2019-05-17T13:49:47.081Z,585
2019-05-17T13:50:47.057Z,580
2019-05-17T13:51:47.046Z,565
2019-05-17T13:52:47.031Z,555
2019-05-17T13:53:47.254Z,545
2019-05-17T13:54:47.061Z,540
2019-05-17T13:55:47.033Z,535
2019-05-17T13:56:47.032Z,540
2019-05-17T13:57:46.792Z,555